Gwalior, Gwalior Airport (VIGR)

NameGwalior Airport
CityGwalior
CountryIndia
ICAOVIGR
IATAGWL
Altitude188 m
CoordinatesGoogle Map
Live Air TrafficLiveATC.net
METARVIGR 070345Z 32005KT 3500 BR FEW040 BKN100 25/21 Q1015 BECMG 4000M
2019-10-07 03:45:00 Wind: Northwest (320°) 2.57 m/s - Visibility: 4000 m - Weather: Mist - Temperature: 25 °C - Dew point: 21 °C - Humidity: 78.5% - Pressure: 1015 hPa
Statistics

The table below shows the detailed information of all flights to/from Gwalior, Gwalior Airport (VIGR).

Ident Aircraft Coming fromFrom Going toTo Owner nameOwnerSpotted durationDurationDate
VT-AIV - AT76 - Air India Regional LLR627 ATR ATR-72-600 AT76 Bombay, India (VABB) VABB
111 km
Gwalior, India (VIGR) VIGR
879 km
Alliance Air Alliance Air - - Wed, 09 Oct 2019 07:37:18 +0000 9/10/2019 7:37 am
VT-RKE - AT76 - Air India Regional LLR627 ATR ATR-72-600 AT76 Bombay, India (VABB) VABB
145 km
Gwalior, India (VIGR) VIGR
850 km
Alliance Air Alliance Air 00:11:53 00:11:53 Sun, 06 Oct 2019 07:24:49 +0000 6/10/2019 7:24 am
Sun, 06 Oct 2019 07:36:42 +0000 6/10/2019 7:36 am
VT-AII - AT76 - Air India Regional LLR627 ATR ATR-72-600 AT76 Bombay, India (VABB) VABB
11 km
Gwalior, India (VIGR) VIGR
977 km
Alliance Air Alliance Air - - Sun, 08 Sep 2019 08:58:49 +0000 8/9/2019 8:58 am
VT-AIV - AT76 - Air India Regional LLR627 ATR ATR-72-600 AT76 Bombay, India (VABB) VABB
94 km
Gwalior, India (VIGR) VIGR
896 km
Alliance Air Alliance Air - - Fri, 06 Sep 2019 07:46:48 +0000 6/9/2019 7:46 am